createdAt,value
2022-09-10T00:00:15.335Z,62.20
2022-09-10T00:02:45.393Z,62.10
2022-09-10T00:05:13.824Z,62.20
2022-09-10T00:07:42.803Z,62.50
2022-09-10T00:10:11.400Z,62.70
2022-09-10T00:12:42.503Z,62.80
2022-09-10T00:15:13.811Z,62.90
2022-09-10T00:17:41.985Z,63.00
2022-09-10T00:20:11.442Z,63.00
2022-09-10T00:22:39.618Z,63.20
2022-09-10T00:25:08.972Z,63.30
2022-09-10T00:27:37.607Z,63.60
2022-09-10T00:30:06.654Z,63.90
2022-09-10T00:32:38.575Z,63.90
2022-09-10T00:35:08.197Z,64.00
2022-09-10T00:37:37.673Z,64.50
2022-09-10T00:40:06.552Z,64.50
2022-09-10T00:42:35.707Z,64.60
2022-09-10T00:45:05.711Z,65.00
2022-09-10T00:47:38.676Z,65.00
2022-09-10T00:50:15.938Z,65.10
2022-09-10T00:52:47.735Z,65.20
2022-09-10T00:55:17.338Z,65.30
2022-09-10T00:57:47.646Z,65.30
2022-09-10T01:00:16.820Z,65.30
2022-09-10T01:02:48.247Z,65.30
2022-09-10T01:05:17.612Z,65.40
2022-09-10T01:07:46.545Z,65.50
2022-09-10T01:10:28.050Z,65.50
2022-09-10T01:13:25.047Z,65.60
2022-09-10T01:16:09.827Z,65.70
2022-09-10T01:18:52.357Z,65.40
2022-09-10T01:21:35.870Z,65.40
2022-09-10T01:24:42.710Z,65.60
2022-09-10T01:27:41.811Z,65.70
2022-09-10T01:30:18.045Z,65.90
2022-09-10T01:32:59.738Z,66.10
2022-09-10T01:35:39.397Z,66.30
2022-09-10T01:38:20.669Z,66.40
2022-09-10T01:40:56.897Z,66.50
2022-09-10T01:43:36.601Z,66.60
2022-09-10T01:46:25.009Z,66.70
2022-09-10T01:49:18.995Z,66.80
2022-09-10T01:52:22.860Z,66.90
2022-09-10T01:55:26.117Z,67.10
2022-09-10T01:58:01.437Z,67.40
2022-09-10T02:00:49.646Z,67.70
2022-09-10T02:03:26.518Z,68.20
2022-09-10T02:05:57.741Z,68.60
2022-09-10T02:08:33.949Z,69.00
2022-09-10T02:11:04.073Z,69.20
2022-09-10T02:13:34.840Z,69.30
2022-09-10T02:16:07.980Z,69.50
2022-09-10T02:18:38.720Z,69.60
2022-09-10T02:21:08.177Z,69.50
2022-09-10T02:23:44.897Z,69.50
2022-09-10T02:26:17.812Z,69.60
2022-09-10T02:28:49.722Z,69.80
2022-09-10T02:31:23.960Z,69.80
2022-09-10T02:33:54.524Z,69.80
2022-09-10T02:36:26.233Z,69.70
2022-09-10T02:38:56.996Z,69.80
2022-09-10T02:41:27.729Z,69.90
2022-09-10T02:43:56.146Z,70.30
2022-09-10T02:46:30.310Z,70.70
2022-09-10T02:49:00.252Z,70.60
2022-09-10T02:51:29.768Z,70.40
2022-09-10T02:53:57.850Z,70.10
2022-09-10T02:56:29.745Z,70.00
2022-09-10T02:58:57.951Z,70.00
2022-09-10T03:01:29.103Z,69.90
2022-09-10T03:04:05.127Z,70.00
2022-09-10T03:06:33.687Z,69.90
2022-09-10T03:09:07.562Z,69.90
2022-09-10T03:11:42.242Z,69.90
2022-09-10T03:14:24.758Z,69.90
2022-09-10T03:16:56.983Z,69.80
2022-09-10T03:19:26.824Z,69.60
2022-09-10T03:21:54.905Z,69.50
2022-09-10T03:24:23.105Z,69.60
2022-09-10T03:26:53.905Z,69.60
2022-09-10T03:29:26.923Z,69.60
2022-09-10T03:31:59.669Z,69.40
2022-09-10T03:34:30.199Z,69.40
2022-09-10T03:36:59.682Z,69.30
2022-09-10T03:39:28.019Z,69.10
2022-09-10T03:41:56.334Z,69.00
2022-09-10T03:44:27.099Z,69.00
2022-09-10T03:47:00.351Z,69.00
2022-09-10T03:49:32.577Z,69.10
2022-09-10T03:52:02.779Z,68.70
2022-09-10T03:54:34.580Z,68.50
2022-09-10T03:57:05.036Z,68.40
2022-09-10T03:59:36.620Z,68.10
2022-09-10T04:02:09.705Z,68.10
2022-09-10T04:04:38.365Z,68.00
2022-09-10T04:07:10.920Z,68.10
2022-09-10T04:09:41.371Z,68.40
2022-09-10T04:12:23.516Z,68.90
2022-09-10T04:14:52.709Z,69.30
2022-09-10T04:17:24.933Z,69.80
2022-09-10T04:19:54.112Z,70.30
2022-09-10T04:22:23.382Z,70.40
2022-09-10T04:25:02.720Z,70.50
2022-09-10T04:27:34.178Z,71.00
2022-09-10T04:30:05.577Z,71.30
2022-09-10T04:32:39.078Z,71.40
2022-09-10T04:35:09.848Z,72.40
2022-09-10T04:37:47.252Z,72.60
2022-09-10T04:43:01.153Z,73.30
2022-09-10T04:45:29.838Z,73.50
2022-09-10T04:48:10.783Z,73.60
2022-09-10T04:50:53.966Z,73.90
2022-09-10T04:53:29.679Z,73.90
2022-09-10T04:55:59.027Z,74.00
2022-09-10T04:58:29.456Z,74.00
2022-09-10T05:01:00.332Z,74.30
2022-09-10T05:03:32.802Z,74.50
2022-09-10T05:06:02.973Z,74.60
2022-09-10T05:08:31.160Z,74.90
2022-09-10T05:11:02.767Z,75.00
2022-09-10T05:13:34.591Z,75.10
2022-09-10T05:16:07.510Z,75.10
2022-09-10T05:18:37.945Z,75.10
2022-09-10T05:21:08.550Z,75.10
2022-09-10T05:23:39.513Z,75.00
2022-09-10T05:26:08.967Z,75.30
2022-09-10T05:28:39.668Z,75.50
2022-09-10T05:31:10.214Z,75.50
2022-09-10T05:33:40.857Z,75.60
2022-09-10T05:36:12.446Z,75.40
2022-09-10T05:38:43.101Z,75.50
2022-09-10T05:41:12.111Z,75.40
2022-09-10T05:43:45.060Z,75.30
2022-09-10T05:46:15.935Z,75.40
2022-09-10T05:48:49.566Z,75.20
2022-09-10T05:51:19.227Z,75.00
2022-09-10T05:53:48.445Z,75.00
2022-09-10T05:56:17.590Z,75.10
2022-09-10T05:58:46.073Z,74.90
2022-09-10T06:01:19.046Z,75.10
2022-09-10T06:03:55.266Z,75.20
2022-09-10T06:06:28.868Z,75.30
2022-09-10T06:08:59.786Z,75.50
2022-09-10T06:11:29.879Z,75.60
2022-09-10T06:13:59.406Z,75.60
2022-09-10T06:16:31.288Z,75.60
2022-09-10T06:19:00.793Z,75.70
2022-09-10T06:21:29.856Z,75.40
2022-09-10T06:24:00.202Z,75.50
2022-09-10T06:26:29.482Z,75.70
2022-09-10T06:29:01.200Z,75.40
2022-09-10T06:31:31.789Z,75.50
2022-09-10T06:34:03.864Z,75.50
2022-09-10T06:36:33.940Z,75.40
2022-09-10T06:39:04.705Z,75.50
2022-09-10T06:41:34.741Z,75.40
2022-09-10T06:44:06.296Z,75.20
2022-09-10T06:49:31.776Z,75.00
2022-09-10T06:52:13.730Z,74.80
2022-09-10T06:54:48.036Z,74.80
2022-09-10T06:57:18.768Z,75.00
2022-09-10T06:59:53.071Z,75.00
2022-09-10T07:02:21.284Z,74.80
2022-09-10T07:05:05.091Z,74.70
2022-09-10T07:07:33.214Z,74.30
2022-09-10T07:10:04.096Z,74.20
2022-09-10T07:12:32.974Z,74.10
2022-09-10T07:15:01.438Z,73.90
2022-09-10T07:17:32.000Z,73.80
2022-09-10T07:20:03.830Z,73.40
2022-09-10T07:22:34.355Z,73.20
2022-09-10T07:25:02.773Z,72.90
2022-09-10T07:27:33.133Z,72.40
2022-09-10T07:30:01.222Z,72.50
2022-09-10T07:32:43.486Z,72.10
2022-09-10T07:35:17.912Z,72.20
2022-09-10T07:37:48.814Z,72.10
2022-09-10T07:40:18.985Z,71.70
2022-09-10T07:42:50.542Z,71.70
2022-09-10T07:45:23.486Z,71.70
2022-09-10T07:47:55.254Z,71.70
2022-09-10T07:50:26.553Z,71.70
2022-09-10T07:52:58.886Z,71.70
2022-09-10T07:55:33.652Z,71.80
2022-09-10T07:58:01.978Z,72.30
2022-09-10T08:00:33.925Z,71.80
2022-09-10T08:03:05.708Z,71.40
2022-09-10T08:05:37.527Z,71.60
2022-09-10T08:08:05.603Z,71.80
2022-09-10T08:10:34.509Z,71.70
2022-09-10T08:13:04.058Z,71.40
2022-09-10T08:15:32.249Z,71.70
2022-09-10T08:18:02.843Z,72.00
2022-09-10T08:20:31.992Z,72.10
2022-09-10T08:23:05.845Z,72.50
2022-09-10T08:25:45.609Z,72.80
2022-09-10T08:28:16.210Z,72.90
2022-09-10T08:30:44.629Z,72.90
2022-09-10T08:33:12.987Z,72.80
2022-09-10T08:35:44.797Z,72.90
2022-09-10T08:38:14.308Z,72.40
2022-09-10T08:40:48.367Z,72.40
2022-09-10T08:43:19.641Z,72.00
2022-09-10T08:45:52.778Z,72.00
2022-09-10T08:48:27.339Z,71.90
2022-09-10T08:50:59.665Z,72.20
2022-09-10T08:53:41.471Z,72.60
2022-09-10T08:56:15.283Z,72.30
2022-09-10T08:58:50.281Z,72.40
2022-09-10T09:01:36.506Z,72.60
2022-09-10T09:04:17.143Z,72.50
2022-09-10T09:06:53.983Z,72.20
2022-09-10T09:09:26.073Z,72.20
2022-09-10T09:12:05.407Z,72.00
2022-09-10T09:14:59.678Z,72.30
2022-09-10T09:18:18.409Z,71.80
2022-09-10T09:20:50.027Z,71.60
2022-09-10T09:23:28.070Z,71.40
2022-09-10T09:26:06.902Z,71.40
2022-09-10T09:28:45.838Z,71.30
2022-09-10T09:31:20.175Z,70.60
2022-09-10T09:34:00.082Z,70.80
2022-09-10T09:36:35.024Z,70.10
2022-09-10T09:39:06.525Z,70.10
2022-09-10T09:41:53.614Z,69.90
2022-09-10T09:44:30.625Z,69.80
2022-09-10T09:46:59.018Z,69.50
2022-09-10T09:49:27.527Z,69.30
2022-09-10T09:51:57.082Z,69.50
2022-09-10T09:55:12.449Z,69.50
2022-09-10T09:57:20.783Z,68.70
2022-09-10T09:59:52.912Z,68.80
2022-09-10T10:02:25.805Z,68.60
2022-09-10T10:05:22.684Z,68.60
2022-09-10T10:07:58.333Z,68.90
2022-09-10T10:10:31.027Z,68.20
2022-09-10T10:13:06.718Z,68.90
2022-09-10T10:15:47.275Z,69.20
2022-09-10T10:18:32.801Z,69.00
2022-09-10T10:21:22.669Z,68.70
2022-09-10T10:23:53.225Z,68.90
2022-09-10T10:26:30.519Z,69.20
2022-09-10T10:29:06.857Z,69.00
2022-09-10T10:31:45.278Z,68.80
2022-09-10T10:34:46.225Z,68.40
2022-09-10T10:37:25.878Z,68.60
2022-09-10T10:40:16.128Z,68.10
2022-09-10T10:42:56.744Z,67.90
2022-09-10T10:45:51.560Z,68.10
2022-09-10T10:48:32.243Z,67.00
2022-09-10T10:51:14.978Z,66.70
2022-09-10T10:54:03.563Z,66.40
2022-09-10T10:56:40.506Z,66.40
2022-09-10T10:59:42.360Z,65.70
2022-09-10T11:02:27.282Z,64.90
2022-09-10T11:05:01.367Z,64.60
2022-09-10T11:07:40.023Z,64.50
2022-09-10T11:10:21.246Z,64.10
2022-09-10T11:12:53.649Z,63.90
2022-09-10T11:15:30.611Z,63.20
2022-09-10T11:18:07.066Z,62.50
2022-09-10T11:20:38.975Z,61.60
2022-09-10T11:23:18.185Z,61.60
2022-09-10T11:25:55.358Z,60.50
2022-09-10T11:28:28.091Z,61.10
2022-09-10T11:31:02.014Z,60.80
2022-09-10T11:33:39.490Z,60.60
2022-09-10T11:36:13.385Z,60.60
2022-09-10T11:38:48.778Z,60.00
2022-09-10T11:41:22.118Z,59.90
2022-09-10T11:43:55.192Z,59.40
2022-09-10T11:46:27.594Z,59.00
2022-09-10T11:49:04.067Z,58.60
2022-09-10T11:51:37.001Z,58.30
2022-09-10T11:54:12.190Z,58.20
2022-09-10T11:56:53.460Z,58.00
2022-09-10T11:59:38.918Z,57.40
2022-09-10T12:02:24.222Z,57.30
2022-09-10T12:05:00.493Z,57.60
2022-09-10T12:07:42.316Z,56.40
2022-09-10T12:10:21.039Z,56.00
2022-09-10T12:12:50.341Z,55.40
2022-09-10T12:15:21.836Z,54.60
2022-09-10T12:17:54.241Z,54.90
2022-09-10T12:20:30.153Z,54.60
2022-09-10T12:22:58.955Z,53.90
2022-09-10T12:25:33.854Z,54.50
2022-09-10T12:28:05.481Z,53.70
2022-09-10T12:31:03.828Z,53.90
2022-09-10T12:34:07.871Z,54.60
2022-09-10T12:37:11.763Z,53.80
2022-09-10T12:39:41.310Z,53.90
2022-09-10T12:42:30.438Z,53.80
2022-09-10T12:44:59.051Z,53.00
2022-09-10T12:47:50.395Z,52.70
2022-09-10T12:50:30.196Z,53.40
2022-09-10T12:53:26.519Z,53.20
2022-09-10T12:56:15.802Z,52.50
2022-09-10T12:58:59.549Z,52.80
2022-09-10T13:01:41.329Z,52.70
2022-09-10T13:04:25.595Z,52.30
2022-09-10T13:06:57.986Z,52.60
2022-09-10T13:09:30.030Z,51.50
2022-09-10T13:12:04.663Z,50.60
2022-09-10T13:14:36.860Z,50.70
2022-09-10T13:17:05.813Z,50.60
2022-09-10T13:19:52.067Z,50.00
2022-09-10T13:22:57.312Z,49.90
2022-09-10T13:25:40.090Z,48.70
2022-09-10T13:28:46.453Z,48.60
2022-09-10T13:31:26.896Z,47.00
2022-09-10T13:34:24.283Z,47.50
2022-09-10T13:37:20.106Z,47.20
2022-09-10T13:40:22.987Z,47.40
2022-09-10T13:43:06.009Z,46.40
2022-09-10T13:45:40.481Z,47.30
2022-09-10T13:48:17.429Z,47.80
2022-09-10T13:50:54.987Z,47.20
2022-09-10T13:53:24.846Z,47.70
2022-09-10T13:55:59.061Z,48.10
2022-09-10T13:58:31.320Z,48.70
2022-09-10T14:01:02.877Z,49.20
2022-09-10T14:03:34.466Z,49.40
2022-09-10T14:06:05.188Z,49.50
2022-09-10T14:08:38.529Z,50.20
2022-09-10T14:11:14.871Z,50.40
2022-09-10T14:13:45.993Z,51.30
2022-09-10T14:16:18.689Z,52.10
2022-09-10T14:18:51.565Z,52.80
2022-09-10T14:21:26.944Z,52.80
2022-09-10T14:23:56.436Z,53.10
2022-09-10T14:26:27.454Z,53.70
2022-09-10T14:28:58.899Z,54.10
2022-09-10T14:31:36.292Z,54.30
2022-09-10T14:34:41.092Z,54.20
2022-09-10T14:37:32.179Z,54.30
2022-09-10T14:40:14.733Z,54.50
2022-09-10T14:42:42.986Z,54.70
2022-09-10T14:45:41.983Z,55.10
2022-09-10T14:48:37.067Z,55.10
2022-09-10T14:51:12.662Z,55.60
2022-09-10T14:53:43.277Z,55.70
2022-09-10T14:56:22.491Z,55.90
2022-09-10T14:58:57.779Z,56.10
2022-09-10T15:01:26.038Z,55.90
2022-09-10T15:03:54.485Z,55.90
2022-09-10T15:06:26.205Z,55.80
2022-09-10T15:08:57.161Z,56.00
2022-09-10T15:11:27.948Z,56.00
2022-09-10T15:13:59.209Z,55.80
2022-09-10T15:16:27.635Z,56.20
2022-09-10T15:18:55.788Z,56.50
2022-09-10T15:21:23.923Z,56.90
2022-09-10T15:23:52.046Z,57.60
2022-09-10T15:26:21.580Z,58.30
2022-09-10T15:28:49.713Z,58.60
2022-09-10T15:31:18.698Z,59.30
2022-09-10T15:33:47.152Z,60.10
2022-09-10T15:36:15.240Z,61.50
2022-09-10T15:38:43.396Z,62.20
2022-09-10T15:41:13.457Z,62.70
2022-09-10T15:43:44.776Z,63.00
2022-09-10T15:46:14.677Z,63.00
2022-09-10T15:48:43.537Z,63.10
2022-09-10T15:51:14.879Z,63.10
2022-09-10T15:53:43.710Z,62.80
2022-09-10T15:56:12.807Z,62.50
2022-09-10T15:58:43.280Z,62.60
2022-09-10T16:01:15.128Z,62.60
2022-09-10T16:03:54.999Z,62.00
2022-09-10T16:06:24.861Z,62.20
2022-09-10T16:08:57.258Z,62.70
2022-09-10T16:11:26.518Z,62.80
2022-09-10T16:14:04.243Z,63.60
2022-09-10T16:16:34.485Z,63.70
2022-09-10T16:19:09.412Z,63.60
2022-09-10T16:21:39.272Z,63.60
2022-09-10T16:24:08.153Z,63.30
2022-09-10T16:26:38.524Z,63.40
2022-09-10T16:29:12.895Z,63.50
2022-09-10T16:31:41.083Z,63.50
2022-09-10T16:34:12.543Z,63.70
2022-09-10T16:36:41.209Z,63.50
2022-09-10T16:39:12.500Z,63.60
2022-09-10T16:41:41.628Z,63.90
2022-09-10T16:44:12.287Z,63.50
2022-09-10T16:46:40.619Z,63.50
2022-09-10T16:49:12.541Z,63.30
2022-09-10T16:51:41.285Z,63.20
2022-09-10T16:54:10.293Z,63.00
2022-09-10T16:56:40.649Z,63.10
2022-09-10T16:59:11.258Z,63.20
2022-09-10T17:01:39.414Z,63.40
2022-09-10T17:04:08.172Z,63.40
2022-09-10T17:06:36.901Z,64.00
2022-09-10T17:09:05.346Z,64.00
2022-09-10T17:11:34.318Z,64.40
2022-09-10T17:14:02.819Z,64.50
2022-09-10T17:16:33.640Z,64.80
2022-09-10T17:19:03.474Z,64.90
2022-09-10T17:21:34.435Z,64.60
2022-09-10T17:24:04.218Z,63.50
2022-09-10T17:26:33.336Z,63.10
2022-09-10T17:29:03.084Z,63.10
2022-09-10T17:31:32.674Z,62.90
2022-09-10T17:34:01.024Z,63.00
2022-09-10T17:36:29.454Z,62.80
2022-09-10T17:38:59.290Z,62.90
2022-09-10T17:41:29.203Z,62.90
2022-09-10T17:43:59.450Z,62.90
2022-09-10T17:46:28.358Z,62.90
2022-09-10T17:48:59.547Z,62.90
2022-09-10T17:51:30.127Z,63.30
2022-09-10T17:53:58.504Z,63.10
2022-09-10T17:56:27.781Z,63.30
2022-09-10T17:58:59.869Z,63.40
2022-09-10T18:01:30.458Z,63.10
2022-09-10T18:04:00.297Z,63.00
2022-09-10T18:06:29.267Z,62.90
2022-09-10T18:09:00.654Z,63.20
2022-09-10T18:11:32.299Z,63.00
2022-09-10T18:14:01.311Z,63.00
2022-09-10T18:16:31.186Z,63.00
2022-09-10T18:19:02.462Z,63.00
2022-09-10T18:21:32.380Z,63.10
2022-09-10T18:24:02.434Z,63.30
2022-09-10T18:26:33.239Z,63.30
2022-09-10T18:29:03.255Z,63.20
2022-09-10T18:31:33.291Z,63.40
2022-09-10T18:34:03.663Z,63.80
2022-09-10T18:36:32.586Z,63.70
2022-09-10T18:39:03.799Z,63.90
2022-09-10T18:41:36.340Z,64.10
2022-09-10T18:44:07.232Z,64.20
2022-09-10T18:46:36.718Z,64.10
2022-09-10T18:49:06.309Z,64.40
2022-09-10T18:51:34.505Z,64.40
2022-09-10T18:54:04.093Z,64.60
2022-09-10T18:56:33.269Z,64.60
2022-09-10T18:59:04.752Z,64.60
2022-09-10T19:01:34.615Z,64.60
2022-09-10T19:04:03.342Z,64.80
2022-09-10T19:06:34.005Z,64.80
2022-09-10T19:09:05.221Z,64.90
2022-09-10T19:11:35.007Z,64.90
2022-09-10T19:14:05.730Z,65.30
2022-09-10T19:16:36.144Z,65.40
2022-09-10T19:19:06.929Z,65.60
2022-09-10T19:21:36.834Z,65.50
2022-09-10T19:24:05.196Z,65.50
2022-09-10T19:26:35.017Z,65.40
2022-09-10T19:29:04.283Z,65.30
2022-09-10T19:31:34.707Z,65.30
2022-09-10T19:34:05.911Z,65.40
2022-09-10T19:36:36.664Z,65.50
2022-09-10T19:39:06.245Z,65.50
2022-09-10T19:41:35.530Z,65.60
2022-09-10T19:44:04.781Z,65.70
2022-09-10T19:46:33.515Z,65.80
2022-09-10T19:49:01.961Z,65.90
2022-09-10T19:51:32.250Z,65.80
2022-09-10T19:54:02.128Z,65.70
2022-09-10T19:56:32.635Z,65.80
2022-09-10T19:59:02.647Z,65.80
2022-09-10T20:01:32.757Z,65.60
2022-09-10T20:04:02.265Z,65.60
2022-09-10T20:06:30.995Z,65.40
2022-09-10T20:08:59.610Z,65.20
2022-09-10T20:11:31.441Z,65.00
2022-09-10T20:14:01.520Z,64.70
2022-09-10T20:16:30.032Z,64.80
2022-09-10T20:18:58.781Z,64.40
2022-09-10T20:21:31.680Z,64.70
2022-09-10T20:24:00.110Z,64.50
2022-09-10T20:26:31.795Z,64.50
2022-09-10T20:29:01.749Z,64.50
2022-09-10T20:31:32.493Z,64.50
2022-09-10T20:34:03.485Z,64.50
2022-09-10T20:36:32.654Z,64.30
2022-09-10T20:39:00.878Z,64.20
2022-09-10T20:41:31.474Z,64.20
2022-09-10T20:44:01.357Z,64.30
2022-09-10T20:46:31.150Z,64.30
2022-09-10T20:49:03.021Z,64.40
2022-09-10T20:51:32.797Z,64.50
2022-09-10T20:54:01.056Z,64.30
2022-09-10T20:56:30.983Z,64.10
2022-09-10T20:58:59.520Z,63.60
2022-09-10T21:01:31.204Z,63.70
2022-09-10T21:04:01.339Z,63.60
2022-09-10T21:06:31.363Z,63.60
2022-09-10T21:09:00.517Z,63.60
2022-09-10T21:11:32.129Z,63.60
2022-09-10T21:14:02.343Z,63.70
2022-09-10T21:16:31.839Z,63.60
2022-09-10T21:19:01.905Z,63.50
2022-09-10T21:21:31.780Z,63.70
2022-09-10T21:24:02.159Z,63.60
2022-09-10T21:26:33.795Z,63.50
2022-09-10T21:29:03.638Z,63.60
2022-09-10T21:31:32.808Z,64.20
2022-09-10T21:34:03.491Z,64.90
2022-09-10T21:36:32.970Z,65.50
2022-09-10T21:39:02.829Z,66.00
2022-09-10T21:41:33.474Z,66.40
2022-09-10T21:44:03.078Z,66.60
2022-09-10T21:46:32.343Z,67.00
2022-09-10T21:49:00.566Z,67.20
2022-09-10T21:51:29.879Z,67.40
2022-09-10T21:53:59.366Z,67.60
2022-09-10T21:56:29.718Z,67.70
2022-09-10T21:59:00.576Z,68.00
2022-09-10T22:01:31.986Z,68.00
2022-09-10T22:04:01.546Z,68.10
2022-09-10T22:06:31.069Z,68.20
2022-09-10T22:09:01.769Z,68.40
2022-09-10T22:11:32.006Z,68.50
2022-09-10T22:14:03.154Z,68.70
2022-09-10T22:16:32.737Z,68.90
2022-09-10T22:19:02.994Z,68.90
2022-09-10T22:21:31.687Z,69.30
2022-09-10T22:24:00.134Z,69.40
2022-09-10T22:26:29.378Z,69.60
2022-09-10T22:28:59.965Z,69.70
2022-09-10T22:31:31.575Z,70.00
2022-09-10T22:34:01.968Z,70.10
2022-09-10T22:36:32.571Z,70.10
2022-09-10T22:39:02.237Z,70.10
2022-09-10T22:41:31.905Z,70.00
2022-09-10T22:44:00.202Z,70.20
2022-09-10T22:46:30.506Z,70.20
2022-09-10T22:48:59.372Z,70.30
2022-09-10T22:51:29.118Z,70.30
2022-09-10T22:53:58.453Z,70.30
2022-09-10T22:56:28.654Z,70.40
2022-09-10T22:58:58.847Z,70.50
2022-09-10T23:01:33.305Z,70.50
2022-09-10T23:04:02.921Z,70.60
2022-09-10T23:06:33.354Z,70.70
2022-09-10T23:09:06.315Z,70.90
2022-09-10T23:11:35.349Z,71.10
2022-09-10T23:14:09.185Z,71.40
2022-09-10T23:16:40.255Z,71.70
2022-09-10T23:19:12.027Z,71.90
2022-09-10T23:21:44.019Z,71.90
2022-09-10T23:24:14.203Z,72.00
2022-09-10T23:26:43.024Z,72.10
2022-09-10T23:29:12.448Z,72.30
2022-09-10T23:31:42.289Z,72.40
2022-09-10T23:34:12.849Z,72.50
2022-09-10T23:36:43.372Z,72.60
2022-09-10T23:39:17.110Z,72.30
2022-09-10T23:41:45.519Z,72.30
2022-09-10T23:44:14.996Z,72.40
2022-09-10T23:46:45.685Z,72.50
2022-09-10T23:49:14.056Z,72.50
2022-09-10T23:51:42.467Z,72.50
2022-09-10T23:54:11.502Z,72.60
2022-09-10T23:56:40.237Z,72.80
2022-09-10T23:59:08.859Z,72.80
